createdAt,value
2023-05-21T00:01:42.325Z,15.10
2023-05-21T00:04:08.964Z,15.09
2023-05-21T00:06:36.203Z,15.06
2023-05-21T00:09:04.518Z,15.15
2023-05-21T00:11:31.559Z,15.10
2023-05-21T00:13:58.411Z,15.01
2023-05-21T00:16:25.665Z,15.15
2023-05-21T00:18:54.562Z,14.94
2023-05-21T00:21:25.997Z,15.03
2023-05-21T00:23:56.553Z,15.01
2023-05-21T00:26:26.540Z,15.05
2023-05-21T00:28:53.045Z,14.99
2023-05-21T00:31:19.750Z,15.02
2023-05-21T00:33:46.674Z,14.98
2023-05-21T00:36:15.958Z,14.96
2023-05-21T00:38:44.268Z,15.05
2023-05-21T00:41:11.124Z,14.92
2023-05-21T00:43:40.434Z,14.91
2023-05-21T00:46:08.659Z,14.94
2023-05-21T00:48:35.376Z,14.81
2023-05-21T00:51:01.943Z,14.84
2023-05-21T00:53:28.547Z,14.83
2023-05-21T00:55:55.236Z,14.77
2023-05-21T00:58:21.795Z,14.79
2023-05-21T01:00:49.481Z,14.80
2023-05-21T01:03:16.417Z,14.81
2023-05-21T01:05:45.073Z,14.81
2023-05-21T01:08:12.793Z,14.92
2023-05-21T01:10:39.362Z,14.82
2023-05-21T01:13:05.957Z,14.92
2023-05-21T01:15:32.639Z,14.91
2023-05-21T01:17:59.715Z,14.86
2023-05-21T01:20:27.030Z,14.95
2023-05-21T01:22:55.187Z,14.95
2023-05-21T01:25:23.310Z,14.84
2023-05-21T01:27:50.646Z,14.84
2023-05-21T01:30:18.670Z,14.85
2023-05-21T01:32:49.769Z,14.86
2023-05-21T01:35:32.519Z,14.78
2023-05-21T01:38:09.260Z,14.64
2023-05-21T01:40:59.537Z,14.69
2023-05-21T01:43:29.143Z,14.76
2023-05-21T01:45:57.505Z,14.72
2023-05-21T01:48:27.152Z,14.74
2023-05-21T01:50:55.395Z,14.72
2023-05-21T01:53:22.232Z,14.58
2023-05-21T01:55:48.777Z,14.65
2023-05-21T01:58:18.381Z,14.68
2023-05-21T02:00:47.593Z,14.68
2023-05-21T02:03:17.657Z,14.59
2023-05-21T02:05:45.836Z,14.59
2023-05-21T02:08:13.001Z,14.58
2023-05-21T02:10:40.179Z,14.56
2023-05-21T02:13:06.720Z,14.57
2023-05-21T02:15:34.907Z,14.61
2023-05-21T02:18:01.771Z,14.50
2023-05-21T02:20:28.267Z,14.61
2023-05-21T02:22:54.718Z,14.61
2023-05-21T02:25:21.187Z,14.63
2023-05-21T02:27:47.908Z,14.65
2023-05-21T02:30:15.929Z,14.61
2023-05-21T02:32:43.525Z,14.60
2023-05-21T02:35:12.872Z,14.43
2023-05-21T02:37:40.523Z,14.56
2023-05-21T02:40:07.991Z,14.58
2023-05-21T02:42:34.614Z,14.56
2023-05-21T02:45:01.132Z,14.37
2023-05-21T02:47:27.692Z,14.54
2023-05-21T02:49:55.373Z,14.62
2023-05-21T02:52:24.682Z,14.68
2023-05-21T02:54:51.934Z,14.56
2023-05-21T02:57:18.954Z,14.50
2023-05-21T02:59:46.060Z,14.53
2023-05-21T03:02:12.994Z,14.55
2023-05-21T03:04:45.939Z,14.61
2023-05-21T03:07:18.017Z,14.56
2023-05-21T03:09:44.834Z,14.46
2023-05-21T03:12:11.694Z,14.50
2023-05-21T03:14:38.440Z,14.50
2023-05-21T03:17:06.076Z,14.52
2023-05-21T03:19:36.611Z,14.51
2023-05-21T03:22:04.592Z,14.50
2023-05-21T03:24:32.091Z,14.58
2023-05-21T03:27:01.699Z,14.59
2023-05-21T03:29:28.701Z,14.63
2023-05-21T03:31:55.748Z,14.68
2023-05-21T03:34:22.404Z,14.77
2023-05-21T03:36:49.576Z,14.63
2023-05-21T03:39:16.133Z,14.70
2023-05-21T03:41:44.350Z,14.66
2023-05-21T03:44:11.100Z,14.65
2023-05-21T03:46:37.888Z,14.71
2023-05-21T03:49:04.561Z,14.67
2023-05-21T03:51:31.736Z,14.69
2023-05-21T03:53:59.538Z,14.66
2023-05-21T03:56:26.264Z,14.54
2023-05-21T03:58:53.146Z,14.63
2023-05-21T04:01:20.037Z,14.63
2023-05-21T04:03:47.081Z,14.62
2023-05-21T04:06:14.061Z,14.68
2023-05-21T04:08:40.564Z,14.57
2023-05-21T04:11:07.499Z,14.63
2023-05-21T04:13:33.977Z,14.66
2023-05-21T04:16:00.676Z,14.61
2023-05-21T04:18:27.403Z,14.64
2023-05-21T04:20:54.044Z,14.65
2023-05-21T04:23:23.797Z,14.55
2023-05-21T04:25:51.185Z,14.59
2023-05-21T04:28:20.265Z,14.55
2023-05-21T04:30:48.021Z,14.62
2023-05-21T04:33:18.422Z,14.65
2023-05-21T04:35:49.857Z,14.64
2023-05-21T04:38:20.633Z,14.68
2023-05-21T04:40:50.685Z,14.66
2023-05-21T04:43:17.246Z,14.71
2023-05-21T04:45:43.853Z,14.51
2023-05-21T04:48:10.318Z,14.68
2023-05-21T04:50:36.789Z,14.69
2023-05-21T04:53:03.501Z,14.73
2023-05-21T04:55:29.968Z,14.68
2023-05-21T04:57:57.668Z,14.76
2023-05-21T05:00:26.107Z,14.75
2023-05-21T05:02:52.798Z,14.67
2023-05-21T05:05:19.507Z,14.63
2023-05-21T05:07:48.156Z,14.79
2023-05-21T05:10:14.718Z,14.73
2023-05-21T05:12:41.167Z,14.69
2023-05-21T05:15:08.222Z,14.77
2023-05-21T05:17:35.706Z,14.78
2023-05-21T05:20:02.225Z,14.73
2023-05-21T05:22:28.763Z,14.63
2023-05-21T05:24:55.259Z,14.69
2023-05-21T05:27:21.777Z,14.71
2023-05-21T05:29:48.262Z,14.68
2023-05-21T05:32:15.202Z,14.59
2023-05-21T05:34:42.772Z,14.75
2023-05-21T05:37:09.221Z,14.74
2023-05-21T05:39:37.112Z,14.72
2023-05-21T05:42:03.718Z,14.73
2023-05-21T05:44:30.190Z,14.74
2023-05-21T05:46:56.791Z,14.70
2023-05-21T05:49:23.242Z,14.68
2023-05-21T05:51:49.701Z,14.75
2023-05-21T05:54:16.569Z,14.76
2023-05-21T05:56:43.082Z,14.72
2023-05-21T05:59:09.719Z,14.75
2023-05-21T06:01:36.357Z,14.72
2023-05-21T06:04:02.885Z,14.78
2023-05-21T06:06:29.311Z,14.70
2023-05-21T06:08:56.037Z,14.71
2023-05-21T06:11:23.779Z,14.81
2023-05-21T06:13:50.247Z,14.70
2023-05-21T06:16:16.847Z,14.81
2023-05-21T06:18:44.517Z,14.80
2023-05-21T06:21:13.189Z,14.91
2023-05-21T06:23:39.843Z,14.86
2023-05-21T06:26:06.361Z,14.90
2023-05-21T06:28:33.940Z,14.91
2023-05-21T06:31:00.446Z,14.86
2023-05-21T06:33:28.397Z,14.97
2023-05-21T06:35:55.379Z,15.04
2023-05-21T06:38:21.887Z,15.16
2023-05-21T06:40:48.479Z,15.17
2023-05-21T06:43:15.096Z,15.18
2023-05-21T06:45:41.750Z,15.19
2023-05-21T06:48:08.735Z,15.35
2023-05-21T06:50:35.194Z,15.36
2023-05-21T06:53:01.810Z,15.32
2023-05-21T06:55:28.308Z,15.27
2023-05-21T06:57:54.861Z,15.43
2023-05-21T07:00:21.310Z,15.53
2023-05-21T07:02:47.896Z,15.58
2023-05-21T07:05:14.452Z,15.50
2023-05-21T07:07:40.985Z,15.60
2023-05-21T07:10:08.431Z,15.58
2023-05-21T07:12:35.049Z,15.57
2023-05-21T07:15:01.918Z,15.64
2023-05-21T07:17:28.388Z,15.51
2023-05-21T07:19:54.856Z,15.60
2023-05-21T07:22:21.419Z,15.65
2023-05-21T07:24:48.124Z,15.63
2023-05-21T07:27:25.238Z,15.58
2023-05-21T07:29:52.052Z,15.76
2023-05-21T07:32:18.550Z,15.85
2023-05-21T07:34:45.026Z,15.99
2023-05-21T07:37:11.471Z,15.93
2023-05-21T07:39:38.022Z,16.00
2023-05-21T07:42:05.911Z,15.96
2023-05-21T07:44:32.479Z,15.88
2023-05-21T07:46:58.984Z,15.98
2023-05-21T07:49:25.454Z,15.93
2023-05-21T07:51:51.917Z,15.96
2023-05-21T07:54:19.606Z,15.97
2023-05-21T07:56:46.221Z,15.96
2023-05-21T07:59:14.821Z,16.07
2023-05-21T08:01:41.928Z,16.01
2023-05-21T08:04:08.567Z,15.99
2023-05-21T08:06:37.384Z,15.96
2023-05-21T08:09:06.127Z,16.09
2023-05-21T08:11:33.186Z,16.08
2023-05-21T08:14:00.876Z,16.04
2023-05-21T08:16:27.488Z,16.05
2023-05-21T08:18:53.937Z,16.10
2023-05-21T08:21:20.746Z,16.09
2023-05-21T08:23:49.376Z,16.07
2023-05-21T08:26:18.698Z,16.00
2023-05-21T08:28:45.210Z,16.10
2023-05-21T08:31:12.316Z,16.17
2023-05-21T08:33:38.908Z,16.27
2023-05-21T08:36:06.644Z,16.50
2023-05-21T08:38:34.047Z,16.64
2023-05-21T08:41:01.822Z,16.71
2023-05-21T08:43:29.603Z,16.66
2023-05-21T08:46:00.436Z,16.83
2023-05-21T08:48:27.885Z,16.93
2023-05-21T08:50:54.995Z,16.92
2023-05-21T08:53:28.267Z,16.86
2023-05-21T08:55:56.214Z,16.94
2023-05-21T08:58:22.940Z,17.00
2023-05-21T09:00:49.522Z,17.25
2023-05-21T09:03:16.712Z,17.39
2023-05-21T09:05:44.988Z,17.43
2023-05-21T09:08:19.390Z,17.55
2023-05-21T09:10:51.437Z,17.42
2023-05-21T09:13:19.155Z,17.44
2023-05-21T09:15:46.873Z,17.46
2023-05-21T09:18:14.221Z,17.57
2023-05-21T09:20:40.916Z,17.53
2023-05-21T09:23:16.455Z,17.51
2023-05-21T09:25:47.438Z,17.52
2023-05-21T09:28:15.722Z,17.44
2023-05-21T09:30:52.014Z,17.38
2023-05-21T09:33:26.098Z,17.40
2023-05-21T09:35:52.747Z,17.54
2023-05-21T09:38:22.684Z,17.58
2023-05-21T09:40:49.547Z,17.74
2023-05-21T09:43:16.673Z,17.78
2023-05-21T09:45:54.283Z,17.93
2023-05-21T09:48:42.030Z,17.86
2023-05-21T09:51:16.749Z,17.81
2023-05-21T09:53:57.687Z,17.96
2023-05-21T09:56:27.165Z,18.00
2023-05-21T09:58:55.010Z,17.88
2023-05-21T10:01:21.874Z,17.80
2023-05-21T10:03:53.780Z,17.73
2023-05-21T10:06:21.638Z,17.72
2023-05-21T10:08:51.454Z,17.72
2023-05-21T10:11:21.291Z,17.84
2023-05-21T10:13:52.077Z,18.31
2023-05-21T10:16:19.370Z,18.09
2023-05-21T10:18:47.307Z,18.14
2023-05-21T10:21:14.120Z,18.22
2023-05-21T10:23:41.767Z,18.24
2023-05-21T10:26:09.326Z,18.13
2023-05-21T10:28:36.745Z,17.99
2023-05-21T10:31:04.865Z,18.08
2023-05-21T10:33:34.489Z,18.06
2023-05-21T10:36:02.614Z,18.12
2023-05-21T10:38:30.371Z,18.18
2023-05-21T10:40:58.387Z,18.12
2023-05-21T10:43:38.812Z,18.21
2023-05-21T10:46:39.522Z,17.89
2023-05-21T10:49:26.641Z,17.88
2023-05-21T10:52:16.337Z,18.01
2023-05-21T10:54:46.203Z,17.88
2023-05-21T10:57:37.365Z,18.09
2023-05-21T11:00:06.130Z,18.24
2023-05-21T11:02:34.317Z,18.29
2023-05-21T11:05:01.940Z,18.34
2023-05-21T11:07:51.991Z,18.75
2023-05-21T11:10:39.338Z,18.71
2023-05-21T11:13:13.011Z,18.75
2023-05-21T11:15:57.649Z,18.89
2023-05-21T11:18:36.732Z,19.04
2023-05-21T11:21:17.011Z,19.03
2023-05-21T11:24:05.244Z,19.10
2023-05-21T11:26:58.516Z,19.33
2023-05-21T11:29:55.666Z,19.39
2023-05-21T11:32:24.205Z,19.45
2023-05-21T11:34:51.148Z,19.43
2023-05-21T11:37:25.080Z,19.36
2023-05-21T11:39:51.657Z,19.42
2023-05-21T11:42:34.269Z,19.60
2023-05-21T11:45:04.361Z,19.61
2023-05-21T11:47:32.343Z,19.53
2023-05-21T11:50:01.437Z,19.63
2023-05-21T11:52:31.909Z,19.59
2023-05-21T11:54:59.741Z,19.52
2023-05-21T11:57:30.488Z,19.61
2023-05-21T12:00:01.183Z,19.64
2023-05-21T12:02:31.422Z,19.85
2023-05-21T12:05:01.035Z,19.72
2023-05-21T12:07:29.722Z,19.63
2023-05-21T12:09:56.819Z,19.55
2023-05-21T12:12:25.951Z,19.79
2023-05-21T12:14:54.873Z,19.87
2023-05-21T12:17:24.122Z,19.89
2023-05-21T12:19:52.934Z,19.99
2023-05-21T12:22:20.234Z,20.03
2023-05-21T12:24:48.378Z,20.03
2023-05-21T12:27:16.873Z,20.08
2023-05-21T12:29:45.519Z,19.89
2023-05-21T12:32:15.920Z,19.92
2023-05-21T12:34:46.768Z,19.79
2023-05-21T12:37:22.826Z,19.73
2023-05-21T12:39:51.232Z,19.87
2023-05-21T12:42:26.172Z,19.81
2023-05-21T12:44:53.470Z,19.79
2023-05-21T12:47:23.650Z,19.66
2023-05-21T12:49:53.063Z,19.83
2023-05-21T12:52:21.572Z,19.82
2023-05-21T12:54:52.781Z,19.68
2023-05-21T12:57:21.252Z,19.91
2023-05-21T12:59:58.524Z,20.05
2023-05-21T13:02:41.657Z,20.08
2023-05-21T13:05:11.182Z,20.13
2023-05-21T13:07:39.378Z,20.05
2023-05-21T13:10:09.060Z,19.99
2023-05-21T13:12:36.120Z,19.88
2023-05-21T13:15:04.795Z,19.86
2023-05-21T13:17:32.782Z,20.00
2023-05-21T13:20:12.883Z,20.15
2023-05-21T13:22:42.635Z,19.95
2023-05-21T13:25:11.366Z,20.10
2023-05-21T13:27:39.191Z,20.11
2023-05-21T13:30:06.430Z,20.20
2023-05-21T13:32:34.496Z,20.29
2023-05-21T13:35:01.105Z,20.29
2023-05-21T13:37:28.020Z,20.42
2023-05-21T13:39:54.682Z,20.51
2023-05-21T13:42:21.287Z,20.23
2023-05-21T13:44:48.149Z,20.15
2023-05-21T13:47:15.207Z,20.29
2023-05-21T13:49:44.319Z,20.09
2023-05-21T13:52:12.134Z,19.98
2023-05-21T13:54:38.504Z,20.04
2023-05-21T13:57:05.111Z,20.07
2023-05-21T13:59:33.658Z,20.19
2023-05-21T14:02:01.483Z,20.19
2023-05-21T14:04:28.151Z,20.26
2023-05-21T14:06:55.042Z,20.26
2023-05-21T14:09:23.304Z,20.23
2023-05-21T14:11:49.789Z,20.23
2023-05-21T14:14:19.186Z,20.22
2023-05-21T14:16:47.199Z,20.17
2023-05-21T14:19:14.195Z,20.09
2023-05-21T14:21:41.549Z,20.31
2023-05-21T14:24:08.338Z,20.17
2023-05-21T14:26:36.728Z,20.15
2023-05-21T14:29:03.216Z,20.06
2023-05-21T14:31:29.891Z,20.18
2023-05-21T14:33:56.470Z,20.09
2023-05-21T14:36:23.027Z,19.96
2023-05-21T14:38:49.583Z,20.10
2023-05-21T14:41:16.010Z,20.14
2023-05-21T14:43:42.614Z,20.26
2023-05-21T14:46:10.927Z,20.02
2023-05-21T14:48:37.352Z,19.99
2023-05-21T14:51:03.948Z,20.07
2023-05-21T14:53:30.529Z,20.08
2023-05-21T14:55:57.272Z,20.13
2023-05-21T14:58:23.779Z,20.22
2023-05-21T15:00:50.344Z,20.41
2023-05-21T15:03:17.229Z,20.45
2023-05-21T15:05:43.780Z,20.59
2023-05-21T15:08:13.311Z,20.47
2023-05-21T15:10:39.954Z,20.41
2023-05-21T15:13:06.549Z,20.47
2023-05-21T15:15:33.073Z,20.42
2023-05-21T15:17:59.587Z,20.28
2023-05-21T15:20:26.212Z,20.31
2023-05-21T15:22:59.075Z,20.18
2023-05-21T15:25:36.462Z,20.23
2023-05-21T15:28:03.483Z,20.10
2023-05-21T15:30:30.001Z,20.11
2023-05-21T15:32:56.474Z,19.81
2023-05-21T15:35:23.071Z,19.89
2023-05-21T15:37:49.794Z,19.91
2023-05-21T15:40:16.311Z,19.71
2023-05-21T15:42:42.955Z,19.82
2023-05-21T15:45:09.819Z,19.64
2023-05-21T15:47:36.698Z,19.66
2023-05-21T15:50:03.409Z,19.74
2023-05-21T15:52:30.359Z,19.78
2023-05-21T15:54:57.015Z,19.65
2023-05-21T15:57:23.595Z,19.79
2023-05-21T15:59:50.773Z,19.69
2023-05-21T16:02:17.234Z,19.70
2023-05-21T16:04:46.704Z,19.51
2023-05-21T16:07:13.179Z,19.45
2023-05-21T16:09:39.617Z,19.39
2023-05-21T16:12:06.466Z,19.43
2023-05-21T16:14:33.076Z,19.26
2023-05-21T16:16:59.643Z,19.27
2023-05-21T16:19:26.258Z,19.22
2023-05-21T16:21:52.723Z,19.27
2023-05-21T16:24:19.584Z,19.31
2023-05-21T16:26:49.571Z,19.14
2023-05-21T16:29:16.092Z,19.14
2023-05-21T16:31:42.718Z,19.12
2023-05-21T16:34:09.247Z,19.03
2023-05-21T16:36:37.422Z,19.09
2023-05-21T16:39:04.323Z,19.15
2023-05-21T16:41:30.873Z,19.15
2023-05-21T16:43:57.328Z,19.06
2023-05-21T16:46:23.912Z,19.08
2023-05-21T16:48:50.627Z,18.99
2023-05-21T16:51:17.300Z,19.00
2023-05-21T16:53:43.947Z,19.09
2023-05-21T16:56:10.549Z,18.98
2023-05-21T16:58:37.055Z,19.03
2023-05-21T17:01:06.302Z,19.09
2023-05-21T17:03:33.024Z,18.93
2023-05-21T17:06:02.046Z,18.92
2023-05-21T17:08:28.547Z,18.84
2023-05-21T17:10:56.012Z,18.69
2023-05-21T17:13:23.394Z,18.86
2023-05-21T17:15:53.331Z,18.77
2023-05-21T17:18:19.946Z,18.79
2023-05-21T17:20:46.502Z,18.81
2023-05-21T17:23:13.139Z,18.84
2023-05-21T17:25:40.325Z,18.77
2023-05-21T17:28:07.186Z,18.66
2023-05-21T17:30:33.893Z,18.80
2023-05-21T17:33:02.166Z,18.85
2023-05-21T17:35:28.994Z,18.80
2023-05-21T17:37:55.575Z,18.68
2023-05-21T17:40:24.549Z,18.56
2023-05-21T17:42:52.304Z,18.61
2023-05-21T17:45:19.289Z,18.61
2023-05-21T17:47:46.882Z,18.60
2023-05-21T17:50:13.665Z,18.52
2023-05-21T17:52:40.306Z,18.51
2023-05-21T17:55:07.850Z,18.54
2023-05-21T17:57:35.847Z,18.43
2023-05-21T18:00:04.909Z,18.43
2023-05-21T18:02:31.804Z,18.43
2023-05-21T18:04:59.278Z,18.39
2023-05-21T18:07:25.873Z,18.28
2023-05-21T18:09:52.415Z,18.27
2023-05-21T18:12:19.047Z,18.22
2023-05-21T18:14:47.867Z,18.06
2023-05-21T18:17:14.295Z,18.04
2023-05-21T18:19:40.780Z,17.98
2023-05-21T18:22:07.831Z,18.01
2023-05-21T18:24:34.520Z,18.02
2023-05-21T18:27:01.022Z,18.03
2023-05-21T18:29:27.489Z,17.90
2023-05-21T18:31:54.119Z,17.87
2023-05-21T18:34:23.561Z,17.88
2023-05-21T18:36:50.097Z,17.95
2023-05-21T18:39:16.622Z,17.81
2023-05-21T18:41:43.510Z,17.81
2023-05-21T18:44:10.020Z,17.72
2023-05-21T18:46:37.766Z,17.72
2023-05-21T18:49:04.951Z,17.69
2023-05-21T18:51:31.749Z,17.72
2023-05-21T18:53:58.676Z,17.72
2023-05-21T18:56:25.841Z,17.67
2023-05-21T18:58:52.609Z,17.53
2023-05-21T19:01:19.208Z,17.35
2023-05-21T19:03:45.869Z,17.37
2023-05-21T19:06:12.538Z,17.34
2023-05-21T19:08:40.433Z,17.35
2023-05-21T19:11:07.393Z,17.27
2023-05-21T19:13:34.559Z,17.08
2023-05-21T19:16:02.230Z,17.16
2023-05-21T19:18:32.408Z,17.19
2023-05-21T19:21:00.431Z,17.22
2023-05-21T19:23:26.980Z,17.15
2023-05-21T19:25:53.659Z,17.13
2023-05-21T19:28:20.367Z,16.94
2023-05-21T19:30:46.971Z,16.98
2023-05-21T19:33:16.649Z,16.97
2023-05-21T19:35:43.385Z,16.90
2023-05-21T19:38:11.004Z,17.01
2023-05-21T19:40:38.227Z,16.83
2023-05-21T19:43:04.889Z,16.86
2023-05-21T19:45:31.557Z,16.78
2023-05-21T19:47:59.555Z,16.78
2023-05-21T19:50:28.442Z,16.70
2023-05-21T19:52:57.169Z,16.57
2023-05-21T19:55:24.493Z,16.51
2023-05-21T19:57:51.067Z,16.52
2023-05-21T20:02:56.572Z,16.47
2023-05-21T20:05:23.362Z,16.31
2023-05-21T20:07:50.159Z,16.33
2023-05-21T20:10:16.887Z,16.42
2023-05-21T20:12:43.798Z,16.38
2023-05-21T20:15:13.275Z,16.21
2023-05-21T20:17:42.902Z,16.23
2023-05-21T20:20:12.189Z,16.18
2023-05-21T20:22:38.768Z,16.26
2023-05-21T20:25:08.430Z,16.28
2023-05-21T20:27:35.768Z,16.16
2023-05-21T20:30:02.745Z,16.27
2023-05-21T20:32:31.816Z,16.20
2023-05-21T20:35:03.316Z,16.20
2023-05-21T20:37:32.562Z,16.23
2023-05-21T20:39:59.993Z,16.12
2023-05-21T20:42:28.679Z,16.17
2023-05-21T20:44:59.021Z,16.06
2023-05-21T20:47:29.922Z,16.05
2023-05-21T20:49:57.867Z,16.12
2023-05-21T20:52:29.099Z,16.00
2023-05-21T20:54:56.692Z,16.05
2023-05-21T20:57:24.181Z,15.90
2023-05-21T20:59:53.698Z,15.82
2023-05-21T21:02:23.682Z,15.76
2023-05-21T21:04:56.516Z,15.87
2023-05-21T21:07:23.503Z,15.94
2023-05-21T21:09:50.372Z,15.90
2023-05-21T21:12:26.657Z,15.95
2023-05-21T21:14:54.606Z,15.78
2023-05-21T21:17:27.624Z,15.88
2023-05-21T21:19:54.461Z,15.69
2023-05-21T21:22:21.605Z,15.85
2023-05-21T21:24:48.939Z,15.77
2023-05-21T21:27:15.988Z,15.58
2023-05-21T21:29:46.451Z,15.57
2023-05-21T21:32:13.586Z,15.56
2023-05-21T21:34:43.328Z,15.62
2023-05-21T21:37:16.436Z,15.59
2023-05-21T21:39:43.434Z,15.62
2023-05-21T21:42:10.602Z,15.52
2023-05-21T21:44:47.894Z,15.60
2023-05-21T21:47:14.905Z,15.63
2023-05-21T21:49:43.925Z,15.50
2023-05-21T21:52:12.558Z,15.53
2023-05-21T21:54:39.310Z,15.46
2023-05-21T21:57:06.349Z,15.39
2023-05-21T21:59:34.094Z,15.49
2023-05-21T22:02:01.180Z,15.42
2023-05-21T22:04:28.161Z,15.48
2023-05-21T22:06:58.233Z,15.42
2023-05-21T22:09:25.284Z,15.41
2023-05-21T22:11:53.495Z,15.39
2023-05-21T22:14:20.336Z,15.46
2023-05-21T22:16:47.907Z,15.38
2023-05-21T22:19:17.994Z,15.42
2023-05-21T22:21:48.005Z,15.45
2023-05-21T22:24:30.773Z,15.36
2023-05-21T22:26:58.828Z,15.29
2023-05-21T22:29:25.602Z,15.23
2023-05-21T22:31:54.974Z,15.17
2023-05-21T22:34:23.191Z,15.13
2023-05-21T22:36:52.349Z,15.01
2023-05-21T22:39:19.214Z,15.06
2023-05-21T22:41:46.068Z,14.95
2023-05-21T22:44:13.345Z,15.00
2023-05-21T22:46:42.190Z,15.03
2023-05-21T22:49:10.867Z,15.01
2023-05-21T22:51:38.020Z,14.87
2023-05-21T22:54:05.224Z,14.98
2023-05-21T22:56:35.177Z,14.91
2023-05-21T22:59:02.110Z,15.03
2023-05-21T23:01:29.485Z,15.03
2023-05-21T23:04:01.436Z,15.06
2023-05-21T23:06:28.635Z,15.05
2023-05-21T23:08:59.263Z,15.03
2023-05-21T23:11:29.415Z,15.11
2023-05-21T23:13:56.553Z,15.05
2023-05-21T23:16:25.970Z,15.13
2023-05-21T23:18:54.568Z,15.09
2023-05-21T23:21:21.908Z,15.15
2023-05-21T23:23:48.976Z,14.94
2023-05-21T23:26:16.084Z,14.95
2023-05-21T23:28:45.932Z,15.04
2023-05-21T23:31:15.449Z,15.04
2023-05-21T23:33:45.016Z,15.05
2023-05-21T23:36:11.953Z,15.01
2023-05-21T23:38:41.780Z,15.01
2023-05-21T23:41:08.829Z,15.04
2023-05-21T23:43:37.998Z,15.07
2023-05-21T23:46:07.456Z,15.09
2023-05-21T23:48:35.879Z,14.98
2023-05-21T23:51:03.047Z,15.08
2023-05-21T23:53:36.021Z,14.99
2023-05-21T23:56:05.571Z,15.04
2023-05-21T23:58:32.485Z,14.95
